Time;durP1;ratioP1;P1;durP2;ratioP2;P2;SDS_P1;SDS_P2;PMS_P1;PMS_P2;Temp;Humidity;BMP_temperature;BMP_pressure;BME280_temperature;BME280_humidity;BME280_pressure;Samples;Min_cycle;Max_cycle;Signal;HPM_P1;HPM_P2
2022/10/16 00:00:37;;;;;;;3.17;1.52;;;13.10;99.90;;;;;;5012908;28;20845;-79
2022/10/16 00:03:04;;;;;;;2.63;1.10;;;13.10;99.90;;;;;;5013038;28;20070;-78
2022/10/16 00:05:29;;;;;;;2.45;1.10;;;13.10;99.90;;;;;;5012718;28;20124;-79
2022/10/16 00:07:55;;;;;;;3.42;1.10;;;13.10;99.90;;;;;;5013249;28;20128;-79
2022/10/16 00:10:21;;;;;;;3.35;1.25;;;13.10;99.90;;;;;;5011528;28;20041;-77
2022/10/16 00:12:47;;;;;;;3.88;1.30;;;13.00;99.90;;;;;;5011096;28;20053;-78
2022/10/16 00:15:13;;;;;;;3.47;1.23;;;13.10;99.90;;;;;;4995305;28;20052;-78
2022/10/16 00:17:38;;;;;;;4.63;1.20;;;13.10;99.90;;;;;;5006838;28;142901;-79
2022/10/16 00:20:05;;;;;;;2.03;1.13;;;13.10;99.90;;;;;;4991949;28;20057;-79
2022/10/16 00:22:30;;;;;;;4.07;1.40;;;13.10;99.90;;;;;;5006098;28;20126;-80
2022/10/16 00:24:56;;;;;;;4.68;1.25;;;13.10;99.90;;;;;;4989119;28;20169;-77
2022/10/16 00:27:22;;;;;;;2.45;1.30;;;13.10;99.90;;;;;;4981498;28;20072;-77
2022/10/16 00:29:52;;;;;;;2.40;1.40;;;13.10;99.90;;;;;;5013651;28;20409;-78
2022/10/16 00:32:19;;;;;;;3.42;1.42;;;13.10;99.90;;;;;;5013467;28;20033;-78
2022/10/16 00:34:45;;;;;;;4.00;1.40;;;13.10;99.90;;;;;;4996226;28;20077;-79
2022/10/16 00:37:11;;;;;;;3.67;1.50;;;13.10;99.90;;;;;;5013133;28;20117;-79
2022/10/16 00:39:37;;;;;;;3.45;1.45;;;13.10;99.90;;;;;;4996122;28;20049;-80
2022/10/16 00:42:03;;;;;;;2.83;1.50;;;13.10;99.90;;;;;;4992478;28;20121;-78
2022/10/16 00:44:50;;;;;;;5.45;1.45;;;13.10;99.90;;;;;;5011668;28;20061;-78
2022/10/16 00:47:28;;;;;;;2.75;1.33;;;13.10;99.90;;;;;;5012740;28;20073;-79
2022/10/16 00:50:18;;;;;;;3.25;1.58;;;13.10;99.90;;;;;;4996858;28;20089;-77
2022/10/16 00:52:48;;;;;;;3.95;1.40;;;13.00;99.90;;;;;;5014870;28;20398;-79
2022/10/16 00:55:14;;;;;;;3.10;1.60;;;13.00;99.90;;;;;;5014935;28;20114;-78
2022/10/16 00:57:41;;;;;;;2.85;1.50;;;13.00;99.90;;;;;;5023171;28;20045;-78
2022/10/16 01:00:09;;;;;;;4.03;1.65;;;13.00;99.90;;;;;;5023969;28;20046;-79
2022/10/16 01:02:35;;;;;;;3.20;1.33;;;12.90;99.90;;;;;;4995684;28;20515;-78
2022/10/16 01:05:02;;;;;;;3.17;1.50;;;12.80;99.90;;;;;;5012869;28;20046;-76
2022/10/16 01:07:39;;;;;;;3.40;1.52;;;12.80;99.90;;;;;;5012841;28;20050;-77
2022/10/16 01:10:24;;;;;;;2.63;1.65;;;12.90;99.90;;;;;;5013053;28;20499;-78
2022/10/16 01:12:52;;;;;;;3.55;1.65;;;12.80;99.90;;;;;;5012811;28;20055;-78
2022/10/16 01:15:25;;;;;;;3.85;1.73;;;12.80;99.90;;;;;;5012422;28;20050;-78
2022/10/16 01:18:01;;;;;;;3.75;1.50;;;12.80;99.90;;;;;;5012201;28;20046;-79
2022/10/16 01:20:52;;;;;;;3.10;1.60;;;12.80;99.90;;;;;;5012899;28;20398;-78
2022/10/16 01:23:48;;;;;;;2.92;1.48;;;12.80;99.90;;;;;;5009118;28;20133;-78
2022/10/16 01:26:35;;;;;;;2.58;1.63;;;12.80;99.90;;;;;;4980100;28;20423;-78
2022/10/16 01:29:17;;;;;;;3.47;1.60;;;12.90;99.90;;;;;;5012573;28;20046;-77
2022/10/16 01:31:49;;;;;;;3.05;1.40;;;12.90;99.90;;;;;;5005908;28;20088;-77
2022/10/16 01:34:22;;;;;;;3.15;1.77;;;12.90;99.90;;;;;;5012356;28;20472;-78
2022/10/16 01:36:56;;;;;;;3.97;1.80;;;12.90;99.90;;;;;;5012098;28;20062;-77
2022/10/16 01:39:28;;;;;;;2.90;1.60;;;12.90;99.90;;;;;;5013392;28;20125;-78
2022/10/16 01:42:16;;;;;;;3.15;1.60;;;13.00;99.90;;;;;;5012224;28;20045;-78
2022/10/16 01:44:46;;;;;;;2.92;1.50;;;12.90;99.90;;;;;;5001797;28;20084;-77
2022/10/16 01:47:13;;;;;;;3.47;1.60;;;12.90;99.90;;;;;;5018017;28;20533;-77
2022/10/16 01:49:43;;;;;;;2.38;1.33;;;12.90;99.90;;;;;;4994483;28;20045;-77
2022/10/16 01:52:17;;;;;;;3.65;1.70;;;12.90;99.90;;;;;;5012261;28;20089;-77
2022/10/16 01:54:47;;;;;;;3.80;2.05;;;12.90;99.90;;;;;;4994350;28;20100;-79
2022/10/16 01:57:15;;;;;;;3.55;1.48;;;12.80;99.90;;;;;;5012067;28;20042;-77
2022/10/16 01:59:48;;;;;;;2.92;1.48;;;12.80;99.90;;;;;;5012120;28;20096;-77
2022/10/16 02:02:17;;;;;;;3.28;1.45;;;12.90;99.90;;;;;;5011779;28;20049;-77
2022/10/16 02:04:52;;;;;;;2.55;1.58;;;12.80;99.90;;;;;;5010596;28;20045;-78
2022/10/16 02:07:18;;;;;;;2.65;1.40;;;12.80;99.90;;;;;;5012236;28;20062;-77
2022/10/16 02:09:44;;;;;;;2.33;1.48;;;12.80;99.90;;;;;;4994000;28;20410;-77
2022/10/16 02:12:16;;;;;;;4.00;1.40;;;12.80;99.90;;;;;;5010224;28;20045;-76
2022/10/16 02:14:42;;;;;;;3.08;1.75;;;12.80;99.90;;;;;;5001466;28;20072;-78
2022/10/16 02:17:16;;;;;;;1.98;1.20;;;12.90;99.90;;;;;;5011015;28;20049;-77
2022/10/16 02:19:46;;;;;;;3.50;1.63;;;12.90;99.90;;;;;;5011937;28;20399;-76
2022/10/16 02:22:27;;;;;;;2.67;1.48;;;13.00;99.90;;;;;;5011789;28;20045;-78
2022/10/16 02:25:15;;;;;;;3.33;1.48;;;13.00;99.90;;;;;;5011624;28;20095;-76
2022/10/16 02:28:09;;;;;;;3.22;1.50;;;13.00;99.90;;;;;;5011762;28;20053;-77
2022/10/16 02:30:50;;;;;;;3.83;1.40;;;13.00;99.90;;;;;;5009819;28;20050;-77
2022/10/16 02:33:17;;;;;;;2.63;1.40;;;13.10;99.90;;;;;;5011515;28;20050;-77
2022/10/16 02:35:45;;;;;;;2.65;1.30;;;13.10;99.90;;;;;;5011470;28;20057;-76
2022/10/16 02:38:12;;;;;;;5.57;2.03;;;13.10;99.90;;;;;;4994057;28;20092;-77
2022/10/16 02:40:38;;;;;;;3.13;1.48;;;13.10;99.90;;;;;;4993339;28;20518;-79
2022/10/16 02:43:05;;;;;;;2.72;1.42;;;13.10;99.90;;;;;;5011142;28;20127;-77
2022/10/16 02:45:31;;;;;;;4.05;1.33;;;13.00;99.90;;;;;;4993789;28;20049;-76
2022/10/16 02:47:57;;;;;;;2.70;1.58;;;13.00;99.90;;;;;;5010897;28;20398;-76
2022/10/16 02:50:24;;;;;;;2.13;1.30;;;13.00;99.90;;;;;;5010728;28;20082;-77
2022/10/16 02:52:49;;;;;;;3.00;1.40;;;13.00;99.90;;;;;;4994034;28;20079;-76
2022/10/16 02:55:15;;;;;;;2.13;1.30;;;13.00;99.90;;;;;;5011120;28;20049;-77
2022/10/16 02:57:41;;;;;;;1.98;1.30;;;13.00;99.90;;;;;;5011197;28;20042;-78
2022/10/16 03:00:09;;;;;;;2.55;1.20;;;13.00;99.90;;;;;;5011225;28;20054;-78
2022/10/16 03:02:35;;;;;;;2.80;1.20;;;13.00;99.90;;;;;;5011280;28;20049;-77
2022/10/16 03:05:01;;;;;;;4.10;1.48;;;13.10;99.90;;;;;;5015056;28;20126;-78
2022/10/16 03:07:26;;;;;;;3.25;1.20;;;13.10;99.90;;;;;;5003501;28;20041;-76
2022/10/16 03:09:52;;;;;;;2.72;1.35;;;13.10;99.90;;;;;;5018964;28;20406;-77
2022/10/16 03:12:18;;;;;;;2.30;1.52;;;13.10;99.90;;;;;;5011663;28;20049;-76
2022/10/16 03:14:43;;;;;;;2.33;1.40;;;13.20;99.90;;;;;;5020283;28;20136;-75
2022/10/16 03:17:09;;;;;;;3.35;1.45;;;13.10;99.90;;;;;;5012922;28;20200;-77
2022/10/16 03:19:35;;;;;;;4.03;1.77;;;13.20;99.90;;;;;;5010608;28;20091;-78
2022/10/16 03:22:01;;;;;;;2.30;1.30;;;13.20;99.90;;;;;;5010847;28;20042;-77
2022/10/16 03:24:27;;;;;;;3.88;1.40;;;13.20;99.90;;;;;;5010500;28;20046;-77
2022/10/16 03:26:53;;;;;;;2.85;1.30;;;13.30;99.90;;;;;;4977305;28;20259;-78
2022/10/16 03:29:18;;;;;;;2.55;1.52;;;13.30;99.90;;;;;;5009882;28;20045;-78
2022/10/16 03:31:44;;;;;;;2.42;1.48;;;13.20;99.90;;;;;;5009314;28;20034;-79
2022/10/16 03:34:10;;;;;;;2.60;1.50;;;13.20;99.90;;;;;;5008689;28;20049;-77
2022/10/16 03:36:35;;;;;;;2.72;1.50;;;13.20;99.90;;;;;;5009019;28;20783;-77
2022/10/16 03:39:01;;;;;;;2.47;1.50;;;13.30;99.90;;;;;;4991325;28;20502;-79
2022/10/16 03:41:26;;;;;;;3.60;1.63;;;13.30;99.90;;;;;;5009926;28;20050;-79
2022/10/16 03:43:52;;;;;;;3.00;1.58;;;13.30;99.90;;;;;;5011017;28;20068;-77
2022/10/16 03:46:18;;;;;;;2.65;1.30;;;13.30;99.90;;;;;;5010447;28;20046;-77
2022/10/16 03:48:43;;;;;;;4.68;1.42;;;13.20;99.90;;;;;;4992687;28;20104;-76
2022/10/16 03:51:09;;;;;;;2.00;1.38;;;13.30;99.90;;;;;;4993078;28;20100;-77
2022/10/16 03:53:35;;;;;;;2.60;1.63;;;13.30;99.90;;;;;;5011014;28;20132;-79
2022/10/16 03:56:00;;;;;;;3.00;1.88;;;13.30;99.90;;;;;;4997048;28;20506;-78
2022/10/16 03:58:26;;;;;;;4.78;1.80;;;13.30;99.90;;;;;;4996864;28;20430;-77
2022/10/16 04:00:52;;;;;;;3.47;1.67;;;13.20;99.90;;;;;;5013903;28;20443;-78
2022/10/16 04:03:18;;;;;;;3.13;1.50;;;13.30;99.90;;;;;;5014252;28;20057;-77
2022/10/16 04:05:44;;;;;;;2.25;1.58;;;13.30;99.90;;;;;;5014598;28;20045;-78
2022/10/16 04:08:10;;;;;;;3.72;1.77;;;13.20;99.90;;;;;;4996373;28;20050;-77
2022/10/16 04:10:36;;;;;;;2.78;1.63;;;13.20;99.90;;;;;;5013888;28;20081;-78
2022/10/16 04:13:01;;;;;;;3.03;1.58;;;13.20;99.90;;;;;;5002421;28;20050;-78
2022/10/16 04:15:27;;;;;;;2.75;1.65;;;13.20;99.90;;;;;;4996403;28;20046;-78
2022/10/16 04:17:53;;;;;;;3.50;1.83;;;13.10;99.90;;;;;;5013085;28;20521;-78
2022/10/16 04:20:19;;;;;;;2.55;1.90;;;13.10;99.90;;;;;;5013689;28;20049;-77
2022/10/16 04:22:45;;;;;;;3.03;1.70;;;13.10;99.90;;;;;;5012340;28;20110;-75
2022/10/16 04:25:11;;;;;;;4.35;2.25;;;13.10;99.90;;;;;;5001313;28;20084;-77
2022/10/16 04:27:38;;;;;;;4.03;2.22;;;13.10;99.90;;;;;;5009575;28;20123;-77
2022/10/16 04:30:04;;;;;;;3.60;2.00;;;13.10;99.90;;;;;;5013459;28;20057;-76
2022/10/16 04:32:30;;;;;;;3.13;2.17;;;13.10;99.90;;;;;;5005542;28;20052;-77
2022/10/16 04:34:56;;;;;;;2.83;1.95;;;13.10;99.90;;;;;;5013572;28;20038;-78
2022/10/16 04:37:26;;;;;;;3.90;2.10;;;13.10;99.90;;;;;;5013476;28;20073;-78
2022/10/16 04:39:52;;;;;;;4.68;2.08;;;13.00;99.90;;;;;;5013284;28;20061;-78
2022/10/16 04:42:18;;;;;;;2.95;2.10;;;12.90;99.90;;;;;;5013081;28;20045;-77
2022/10/16 04:44:44;;;;;;;4.00;2.00;;;12.90;99.90;;;;;;4992779;28;20049;-78
2022/10/16 04:47:09;;;;;;;3.50;2.30;;;12.90;99.90;;;;;;5002769;28;20544;-79
2022/10/16 04:49:35;;;;;;;3.40;2.05;;;12.90;99.90;;;;;;5013743;28;20108;-77
2022/10/16 04:52:01;;;;;;;3.28;2.30;;;12.90;99.90;;;;;;5013154;28;20046;-78
2022/10/16 04:54:26;;;;;;;3.65;2.15;;;12.90;99.90;;;;;;5013123;28;20116;-78
2022/10/16 04:56:52;;;;;;;3.33;2.17;;;13.00;99.90;;;;;;5013371;28;20053;-78
2022/10/16 04:59:19;;;;;;;3.42;2.10;;;12.90;99.90;;;;;;5013110;28;20529;-78
2022/10/16 05:01:45;;;;;;;3.95;2.15;;;12.90;99.90;;;;;;5012900;28;20053;-77
2022/10/16 05:04:11;;;;;;;4.68;2.20;;;12.80;99.90;;;;;;5011798;28;20041;-77
2022/10/16 05:06:38;;;;;;;2.90;2.22;;;12.90;99.90;;;;;;5011945;28;20096;-76
2022/10/16 05:09:05;;;;;;;3.42;2.20;;;12.80;99.90;;;;;;5012831;28;20045;-77
2022/10/16 05:11:31;;;;;;;5.32;2.20;;;12.90;99.90;;;;;;5012896;28;20070;-77
2022/10/16 05:13:57;;;;;;;3.95;2.05;;;12.90;99.90;;;;;;5012662;28;20121;-77
2022/10/16 05:16:22;;;;;;;3.30;1.90;;;12.90;99.90;;;;;;5011410;28;20149;-76
2022/10/16 05:18:48;;;;;;;4.57;2.10;;;12.90;99.90;;;;;;5011879;28;20065;-76
2022/10/16 05:21:14;;;;;;;3.45;2.50;;;12.80;99.90;;;;;;5012223;28;20439;-77
2022/10/16 05:23:40;;;;;;;4.45;2.47;;;12.80;99.90;;;;;;5012978;28;20133;-76
2022/10/16 05:26:05;;;;;;;3.20;2.15;;;12.80;99.90;;;;;;5012510;28;20140;-77
2022/10/16 05:28:31;;;;;;;4.05;2.22;;;12.80;99.90;;;;;;5012663;28;20049;-76
2022/10/16 05:30:57;;;;;;;3.92;2.35;;;12.80;99.90;;;;;;5013173;28;20104;-79
2022/10/16 05:33:25;;;;;;;4.25;2.45;;;12.80;99.90;;;;;;5013853;28;20440;-78
2022/10/16 05:35:51;;;;;;;3.20;2.15;;;12.70;99.90;;;;;;5012488;28;20387;-78
2022/10/16 05:38:17;;;;;;;3.47;2.22;;;12.70;99.90;;;;;;4994890;28;20450;-80
2022/10/16 05:40:43;;;;;;;3.47;2.13;;;12.70;99.90;;;;;;5012085;28;20388;-78
2022/10/16 05:43:09;;;;;;;4.10;2.40;;;12.70;99.90;;;;;;5012336;28;20077;-77
2022/10/16 05:45:35;;;;;;;4.15;2.22;;;12.70;99.90;;;;;;5012130;28;20517;-77
2022/10/16 05:48:01;;;;;;;3.35;2.40;;;12.70;99.90;;;;;;5010949;28;20108;-77
2022/10/16 05:50:27;;;;;;;3.10;2.10;;;12.60;99.90;;;;;;5011907;28;20050;-77
2022/10/16 05:52:52;;;;;;;3.40;2.22;;;12.60;99.90;;;;;;5011482;28;20569;-77
2022/10/16 05:55:18;;;;;;;4.50;2.50;;;12.60;99.90;;;;;;4994361;28;20057;-78
2022/10/16 05:57:44;;;;;;;3.67;2.28;;;12.60;99.90;;;;;;4994908;28;20041;-79
2022/10/16 06:00:10;;;;;;;3.03;2.20;;;12.60;99.90;;;;;;4994444;28;20046;-78
2022/10/16 06:02:36;;;;;;;3.78;2.38;;;12.60;99.90;;;;;;5011956;28;20057;-78
2022/10/16 06:05:01;;;;;;;2.63;1.92;;;12.70;99.90;;;;;;5012027;28;20042;-78
2022/10/16 06:07:27;;;;;;;3.95;2.15;;;12.60;99.90;;;;;;5011780;28;20414;-78
2022/10/16 06:09:53;;;;;;;2.75;1.90;;;12.60;99.90;;;;;;5011759;28;20053;-78
2022/10/16 06:12:19;;;;;;;2.58;1.70;;;12.60;99.90;;;;;;4990250;28;20125;-76
2022/10/16 06:14:48;;;;;;;3.90;1.88;;;12.70;99.90;;;;;;5018935;28;20056;-78
2022/10/16 06:17:14;;;;;;;4.50;2.10;;;12.70;99.90;;;;;;5012009;28;20046;-78
2022/10/16 06:19:40;;;;;;;3.28;2.08;;;12.60;99.90;;;;;;5011308;28;20129;-76
2022/10/16 06:22:06;;;;;;;3.83;2.10;;;12.70;99.90;;;;;;5011090;28;20133;-78
2022/10/16 06:24:32;;;;;;;2.95;1.80;;;12.70;99.90;;;;;;5011422;28;20080;-78
2022/10/16 06:26:58;;;;;;;2.80;1.90;;;12.70;99.90;;;;;;4994257;28;20111;-78
2022/10/16 06:29:23;;;;;;;3.20;1.90;;;12.70;99.90;;;;;;5011337;28;20050;-77
2022/10/16 06:31:49;;;;;;;3.58;1.70;;;12.80;99.90;;;;;;5012835;28;20092;-77
2022/10/16 06:34:15;;;;;;;3.03;1.80;;;12.80;99.90;;;;;;5010141;28;20122;-77
2022/10/16 06:36:41;;;;;;;3.25;1.80;;;12.90;99.90;;;;;;5011569;28;20432;-76
2022/10/16 06:39:09;;;;;;;2.92;1.73;;;12.90;99.90;;;;;;5011273;28;20052;-78
2022/10/16 06:41:35;;;;;;;3.08;1.42;;;12.90;99.90;;;;;;4994097;28;20081;-76
2022/10/16 06:44:01;;;;;;;2.55;1.50;;;13.00;99.90;;;;;;5011426;28;20147;-79
2022/10/16 06:46:27;;;;;;;2.90;1.50;;;13.00;99.90;;;;;;5011261;28;20111;-79
2022/10/16 06:48:53;;;;;;;4.28;1.60;;;13.00;99.90;;;;;;5010605;28;20077;-79
2022/10/16 06:51:21;;;;;;;2.35;1.60;;;13.00;99.90;;;;;;4993970;28;20053;-77
2022/10/16 06:53:52;;;;;;;2.65;1.70;;;13.10;99.90;;;;;;5011132;28;20414;-82
2022/10/16 06:56:24;;;;;;;3.40;1.80;;;13.10;99.90;;;;;;5011156;28;20502;-79
2022/10/16 06:58:51;;;;;;;2.70;1.58;;;13.10;99.90;;;;;;5011178;28;20395;-79
2022/10/16 07:01:18;;;;;;;3.47;1.50;;;13.10;99.90;;;;;;5010709;28;20045;-79
2022/10/16 07:03:45;;;;;;;2.28;1.40;;;13.10;99.90;;;;;;5010820;28;20048;-78
2022/10/16 07:06:17;;;;;;;2.90;1.45;;;13.10;99.90;;;;;;4990220;28;20057;-78
2022/10/16 07:08:44;;;;;;;2.65;1.35;;;13.10;99.90;;;;;;4989914;28;20509;-78
2022/10/16 07:11:12;;;;;;;3.38;1.80;;;13.20;99.90;;;;;;5010718;28;20042;-78
2022/10/16 07:13:40;;;;;;;2.35;1.50;;;13.20;99.90;;;;;;5013545;28;20045;-77
2022/10/16 07:16:06;;;;;;;2.20;1.50;;;13.20;99.90;;;;;;5030754;28;20046;-78
2022/10/16 07:18:32;;;;;;;3.10;1.83;;;13.20;99.90;;;;;;5010672;28;20065;-77
2022/10/16 07:21:15;;;;;;;3.70;1.55;;;13.20;99.90;;;;;;5011413;28;20438;-80
2022/10/16 07:23:42;;;;;;;3.85;1.63;;;13.20;99.90;;;;;;5011066;28;20502;-80
2022/10/16 07:26:10;;;;;;;4.55;1.70;;;13.30;99.90;;;;;;5029878;28;20053;-80
2022/10/16 07:28:36;;;;;;;3.38;1.85;;;13.30;99.90;;;;;;5013496;28;20053;-78
2022/10/16 07:31:04;;;;;;;3.03;1.50;;;13.30;99.90;;;;;;4998105;28;20049;-78
2022/10/16 07:33:30;;;;;;;3.20;1.67;;;13.30;99.90;;;;;;4997776;28;20048;-81
2022/10/16 07:35:56;;;;;;;2.92;1.50;;;13.30;99.90;;;;;;5022430;28;20050;-83
2022/10/16 07:38:22;;;;;;;2.65;1.60;;;13.30;99.90;;;;;;5014599;28;20068;-82
2022/10/16 07:40:48;;;;;;;2.53;1.70;;;13.30;99.90;;;;;;5025512;28;20049;-83
2022/10/16 07:43:14;;;;;;;2.78;1.60;;;13.40;99.90;;;;;;5034469;28;20045;-81
2022/10/16 07:45:49;;;;;;;2.53;1.60;;;13.40;99.90;;;;;;5016516;28;20428;-81
2022/10/16 07:48:15;;;;;;;3.35;1.58;;;13.50;99.90;;;;;;5028149;28;20037;-82
2022/10/16 07:50:41;;;;;;;2.92;1.92;;;13.50;99.90;;;;;;5007888;28;20042;-82
2022/10/16 07:53:07;;;;;;;2.55;1.58;;;13.50;99.90;;;;;;5030718;28;20052;-82
2022/10/16 07:55:33;;;;;;;3.50;1.85;;;13.60;99.90;;;;;;5003361;28;20045;-80
2022/10/16 07:57:58;;;;;;;3.75;1.92;;;13.60;99.90;;;;;;5033876;28;20076;-83
2022/10/16 08:00:24;;;;;;;3.42;1.60;;;13.60;99.90;;;;;;4998972;28;20061;-81
2022/10/16 08:02:50;;;;;;;3.58;1.63;;;13.70;99.90;;;;;;5015807;28;20042;-83
2022/10/16 08:05:15;;;;;;;2.65;1.73;;;13.70;99.90;;;;;;5029892;28;20085;-81
2022/10/16 08:07:41;;;;;;;4.35;1.70;;;13.70;99.90;;;;;;5030567;28;20041;-80
2022/10/16 08:10:22;;;;;;;4.25;1.50;;;13.70;99.90;;;;;;5006351;28;20192;-81
2022/10/16 08:12:47;;;;;;;2.40;1.30;;;13.80;99.90;;;;;;5019490;28;20045;-78
2022/10/16 08:15:13;;;;;;;3.38;1.45;;;13.80;99.90;;;;;;5031305;28;20133;-77
2022/10/16 08:17:39;;;;;;;2.55;1.27;;;13.90;99.90;;;;;;5033160;28;20045;-79
2022/10/16 08:20:05;;;;;;;4.57;1.40;;;13.90;99.90;;;;;;5015902;28;20136;-78
2022/10/16 08:22:31;;;;;;;2.97;1.42;;;14.00;99.90;;;;;;5028666;28;20088;-80
2022/10/16 08:24:56;;;;;;;3.45;1.50;;;14.00;99.90;;;;;;4996583;28;20084;-81
2022/10/16 08:27:22;;;;;;;3.10;1.17;;;14.10;99.90;;;;;;5015304;28;20497;-81
2022/10/16 08:29:51;;;;;;;3.65;1.30;;;14.00;99.90;;;;;;5015082;28;20516;-77
2022/10/16 08:32:16;;;;;;;4.10;1.13;;;14.00;99.90;;;;;;5008587;28;20225;-79
2022/10/16 08:34:42;;;;;;;1.98;0.90;;;14.00;99.90;;;;;;5026229;28;20037;-75
2022/10/16 08:37:11;;;;;;;1.90;1.00;;;14.10;99.90;;;;;;5014584;28;20141;-78
2022/10/16 08:39:36;;;;;;;2.60;1.08;;;14.20;99.90;;;;;;4995827;28;20033;-81
2022/10/16 08:42:31;;;;;;;1.83;0.90;;;14.20;99.90;;;;;;5031872;28;20103;-80
2022/10/16 08:45:16;;;;;;;3.53;1.00;;;14.30;99.90;;;;;;5028650;28;20060;-79
2022/10/16 08:47:53;;;;;;;2.00;1.02;;;14.40;99.90;;;;;;4981415;28;20090;-82
2022/10/16 08:50:24;;;;;;;2.45;0.90;;;14.40;99.90;;;;;;5021178;28;20085;-81
2022/10/16 08:52:51;;;;;;;4.03;1.13;;;14.50;99.90;;;;;;5015524;28;20054;-82
2022/10/16 08:55:43;;;;;;;2.38;1.10;;;14.50;99.90;;;;;;4997680;28;20049;-83
2022/10/16 08:58:21;;;;;;;2.47;1.20;;;14.50;99.90;;;;;;5014896;28;20114;-81
2022/10/16 09:00:50;;;;;;;2.25;1.02;;;14.60;99.90;;;;;;5020526;28;20049;-78
2022/10/16 09:03:40;;;;;;;3.88;1.60;;;14.60;99.90;;;;;;5032406;28;20049;-80
2022/10/16 09:06:20;;;;;;;3.05;1.00;;;14.70;99.90;;;;;;5009268;28;20456;-80
2022/10/16 09:09:07;;;;;;;2.10;1.20;;;14.70;99.90;;;;;;5001826;28;20045;-82
2022/10/16 09:11:53;;;;;;;4.15;1.35;;;14.90;99.90;;;;;;5032200;28;20049;-79
2022/10/16 09:14:49;;;;;;;3.08;1.10;;;15.00;99.90;;;;;;5028607;28;20054;-77
2022/10/16 09:17:21;;;;;;;2.45;1.10;;;15.00;99.90;;;;;;5025363;28;20050;-79
2022/10/16 09:19:56;;;;;;;3.13;1.27;;;15.10;99.90;;;;;;5008963;28;20132;-77
2022/10/16 09:22:27;;;;;;;1.70;1.00;;;15.20;99.90;;;;;;5010709;28;20037;-78
2022/10/16 09:24:58;;;;;;;2.45;1.20;;;15.30;99.90;;;;;;5023069;28;20045;-80
2022/10/16 09:27:23;;;;;;;2.63;1.10;;;15.30;99.90;;;;;;5026774;28;20041;-79
2022/10/16 09:29:49;;;;;;;2.70;1.20;;;15.40;99.90;;;;;;5013921;28;20509;-79
2022/10/16 09:32:20;;;;;;;2.17;1.08;;;15.40;99.90;;;;;;5022977;28;20160;-79
2022/10/16 09:34:52;;;;;;;3.58;1.10;;;15.50;99.90;;;;;;5025751;28;20054;-77
2022/10/16 09:37:21;;;;;;;5.07;1.35;;;15.60;99.90;;;;;;5005163;28;20132;-77
2022/10/16 09:39:48;;;;;;;3.10;1.10;;;15.70;99.90;;;;;;5010031;28;20077;-79
2022/10/16 09:42:22;;;;;;;2.63;1.10;;;15.90;99.90;;;;;;5005816;28;20548;-79
2022/10/16 09:44:50;;;;;;;3.10;1.00;;;16.10;99.90;;;;;;5026603;28;20045;-78
2022/10/16 09:47:20;;;;;;;3.47;1.33;;;16.20;99.90;;;;;;4992276;28;20379;-77
2022/10/16 09:50:01;;;;;;;3.28;1.20;;;16.30;99.90;;;;;;5012634;28;20056;-79
2022/10/16 09:52:29;;;;;;;2.25;0.90;;;16.40;99.90;;;;;;4986971;28;20052;-79
2022/10/16 09:54:59;;;;;;;2.55;0.95;;;16.50;99.90;;;;;;5014395;28;20085;-80
2022/10/16 09:57:25;;;;;;;2.55;0.90;;;16.50;99.90;;;;;;5009335;28;20068;-78
2022/10/16 09:59:53;;;;;;;3.33;1.08;;;16.50;99.90;;;;;;5008516;28;20050;-78
2022/10/16 10:02:31;;;;;;;2.50;1.02;;;16.50;99.90;;;;;;5008869;28;20236;-80
2022/10/16 10:04:57;;;;;;;2.42;1.05;;;16.40;99.90;;;;;;4991656;28;20616;-81
2022/10/16 10:07:27;;;;;;;2.55;1.08;;;16.40;99.90;;;;;;4977190;28;20105;-80
2022/10/16 10:09:55;;;;;;;3.88;1.17;;;16.40;99.90;;;;;;4993454;28;20051;-82
2022/10/16 10:12:26;;;;;;;3.83;1.00;;;16.40;99.90;;;;;;4994483;28;20050;-75
2022/10/16 10:14:55;;;;;;;3.47;1.20;;;16.40;99.90;;;;;;5019395;28;20104;-81
2022/10/16 10:17:26;;;;;;;4.35;1.05;;;16.40;99.90;;;;;;4990981;28;20720;-76
2022/10/16 10:20:15;;;;;;;4.50;0.93;;;16.40;99.90;;;;;;5011863;28;20057;-74
2022/10/16 10:22:46;;;;;;;3.20;1.23;;;16.50;99.90;;;;;;5011767;28;20057;-76
2022/10/16 10:25:11;;;;;;;2.83;1.13;;;16.40;99.90;;;;;;5011864;28;20445;-74
2022/10/16 10:27:49;;;;;;;3.72;1.50;;;16.40;99.90;;;;;;5011232;28;20042;-76
2022/10/16 10:30:14;;;;;;;4.38;1.20;;;16.40;99.90;;;;;;5008903;28;20050;-74
2022/10/16 10:32:43;;;;;;;2.97;1.08;;;16.50;99.90;;;;;;5010007;28;20519;-74
2022/10/16 10:35:21;;;;;;;4.97;1.30;;;16.50;99.90;;;;;;5009740;28;20050;-73
2022/10/16 10:37:58;;;;;;;3.55;1.20;;;16.50;99.90;;;;;;5010410;28;20045;-74
2022/10/16 10:40:39;;;;;;;3.95;1.10;;;16.50;99.90;;;;;;5010419;28;20435;-74
2022/10/16 10:43:43;;;;;;;4.72;1.13;;;16.50;99.90;;;;;;5008986;28;20072;-73
2022/10/16 10:46:40;;;;;;;4.68;1.10;;;16.50;99.90;;;;;;4957789;28;20540;-73
2022/10/16 10:49:25;;;;;;;3.47;0.95;;;16.30;99.90;;;;;;5009100;28;20061;-74
2022/10/16 10:52:04;;;;;;;2.92;1.05;;;16.40;99.90;;;;;;5009759;28;20055;-74
2022/10/16 10:54:45;;;;;;;3.88;1.20;;;16.50;99.90;;;;;;4991961;28;20391;-65
2022/10/16 10:57:33;;;;;;;5.65;1.17;;;16.50;99.90;;;;;;5010973;28;20081;-65
2022/10/16 11:00:09;;;;;;;4.00;1.33;;;16.50;99.90;;;;;;5007995;28;20495;-65
2022/10/16 11:02:37;;;;;;;;;;;16.50;99.90;;;;;;4994622;28;20058;-64
2022/10/16 11:05:27;;;;;;;4.70;1.30;;;16.70;99.90;;;;;;5015404;28;19928;-64
2022/10/16 11:07:59;;;;;;;3.78;1.50;;;16.60;99.90;;;;;;5015406;28;20077;-65
2022/10/16 11:10:57;;;;;;;2.88;0.90;;;16.30;99.90;;;;;;5014969;28;20487;-65
2022/10/16 11:13:36;;;;;;;4.90;1.40;;;16.10;99.90;;;;;;4997422;28;20050;-65
2022/10/16 11:16:23;;;;;;;4.22;1.10;;;16.00;99.90;;;;;;5032028;28;20041;-65
2022/10/16 11:18:59;;;;;;;3.90;1.20;;;16.00;99.90;;;;;;5034383;28;20097;-65
2022/10/16 11:21:29;;;;;;;2.80;1.02;;;16.00;99.90;;;;;;5034750;28;20084;-65
2022/10/16 11:24:06;;;;;;;3.80;1.08;;;16.00;99.90;;;;;;5034481;28;20562;-65
2022/10/16 11:26:39;;;;;;;5.05;1.80;;;16.00;99.90;;;;;;5034852;28;20122;-64
2022/10/16 11:29:13;;;;;;;4.72;1.23;;;16.00;99.90;;;;;;5017378;28;20057;-65
2022/10/16 11:31:44;;;;;;;4.97;1.38;;;16.10;99.90;;;;;;5034793;28;20599;-65
2022/10/16 11:34:27;;;;;;;3.45;1.00;;;16.40;99.90;;;;;;5034679;28;20103;-65
2022/10/16 11:37:20;;;;;;;3.58;0.85;;;16.50;99.90;;;;;;5034691;28;20444;-64
2022/10/16 11:39:49;;;;;;;4.03;1.55;;;16.80;99.90;;;;;;5032064;28;20053;-64
2022/10/16 11:42:40;;;;;;;3.08;1.10;;;16.80;99.90;;;;;;5034801;28;20045;-64
2022/10/16 11:45:46;;;;;;;4.20;1.25;;;16.80;99.90;;;;;;5016987;28;20084;-64
2022/10/16 11:48:37;;;;;;;4.50;1.10;;;16.80;99.90;;;;;;4954234;28;20535;-64
2022/10/16 11:51:15;;;;;;;2.65;0.93;;;16.70;99.90;;;;;;4971595;28;20463;-64
2022/10/16 11:53:41;;;;;;;4.93;1.33;;;16.50;99.90;;;;;;5017465;28;20521;-64
2022/10/16 11:56:07;;;;;;;3.92;1.20;;;16.40;99.90;;;;;;5034206;28;20041;-65
2022/10/16 11:58:41;;;;;;;3.45;1.35;;;16.40;99.90;;;;;;5016471;28;20088;-65
2022/10/16 12:01:41;;;;;;;3.28;0.93;;;16.50;99.90;;;;;;5033927;28;20049;-65
2022/10/16 12:04:32;;;;;;;2.05;0.82;;;16.60;99.90;;;;;;5013713;28;20061;-64
2022/10/16 12:07:07;;;;;;;4.18;1.05;;;16.40;99.90;;;;;;5033232;28;20049;-64
2022/10/16 12:09:37;;;;;;;2.80;0.98;;;16.30;99.90;;;;;;5034172;28;20049;-65
2022/10/16 12:12:02;;;;;;;5.30;1.35;;;16.20;99.90;;;;;;5033495;28;20049;-65
2022/10/16 12:14:28;;;;;;;5.97;1.10;;;16.10;99.90;;;;;;5028411;28;20426;-65
2022/10/16 12:17:05;;;;;;;2.97;1.00;;;16.10;99.90;;;;;;5033731;28;20104;-64
2022/10/16 12:19:32;;;;;;;3.60;1.08;;;16.10;99.90;;;;;;5033487;28;20512;-64
2022/10/16 12:22:01;;;;;;;5.28;1.20;;;16.00;99.90;;;;;;5033864;28;20046;-64
2022/10/16 12:24:30;;;;;;;2.67;0.95;;;16.00;99.90;;;;;;5016336;28;20049;-64
2022/10/16 12:26:55;;;;;;;5.65;2.50;;;16.20;99.90;;;;;;5019664;28;20045;-64
2022/10/16 12:29:21;;;;;;;2.85;1.33;;;16.20;99.90;;;;;;5010261;28;20041;-65
2022/10/16 12:31:48;;;;;;;4.32;1.20;;;16.20;99.90;;;;;;5011775;28;20537;-64
2022/10/16 12:34:23;;;;;;;4.18;0.90;;;16.30;99.90;;;;;;5013016;28;20054;-64
2022/10/16 12:36:49;;;;;;;4.47;1.42;;;16.60;99.90;;;;;;5013585;28;20057;-64
2022/10/16 12:39:25;;;;;;;5.50;1.30;;;16.80;99.90;;;;;;5013105;28;20117;-65
2022/10/16 12:42:06;;;;;;;3.05;1.05;;;17.00;99.90;;;;;;5013655;28;20049;-65
2022/10/16 12:44:34;;;;;;;3.47;1.23;;;17.10;99.90;;;;;;5013689;28;20121;-64
2022/10/16 12:47:01;;;;;;;4.25;1.20;;;17.20;99.90;;;;;;5013558;28;20053;-64
2022/10/16 12:49:30;;;;;;;3.70;1.02;;;17.10;99.90;;;;;;5012437;28;20061;-65
2022/10/16 12:51:57;;;;;;;2.90;1.00;;;17.00;99.90;;;;;;5013187;28;20057;-65
2022/10/16 12:54:29;;;;;;;4.13;1.02;;;16.80;99.90;;;;;;5013390;28;20085;-64
2022/10/16 12:57:00;;;;;;;2.50;1.02;;;16.80;99.90;;;;;;5013513;28;20045;-65
2022/10/16 12:59:32;;;;;;;3.10;0.75;;;16.80;99.90;;;;;;5013071;28;20406;-65
2022/10/16 13:02:07;;;;;;;5.90;1.48;;;16.70;99.90;;;;;;5013067;28;20050;-65
2022/10/16 13:04:51;;;;;;;2.92;1.00;;;16.70;99.90;;;;;;5012616;28;20050;-64